createdAt,value
2022-07-30T00:02:11.135Z,6.07
2022-07-30T00:04:38.980Z,3.90
2022-07-30T00:07:06.803Z,6.53
2022-07-30T00:09:36.268Z,3.80
2022-07-30T00:12:05.338Z,5.50
2022-07-30T00:14:34.879Z,4.07
2022-07-30T00:17:03.891Z,5.93
2022-07-30T00:19:33.508Z,7.10
2022-07-30T00:22:01.353Z,6.30
2022-07-30T00:24:29.224Z,5.73
2022-07-30T00:26:57.269Z,3.93
2022-07-30T00:29:25.637Z,6.17
2022-07-30T00:31:53.492Z,6.90
2022-07-30T00:34:21.308Z,4.77
2022-07-30T00:36:50.603Z,4.57
2022-07-30T00:39:18.467Z,7.50
2022-07-30T00:41:58.618Z,4.33
2022-07-30T00:44:26.901Z,4.83
2022-07-30T00:46:55.456Z,5.47
2022-07-30T00:49:23.707Z,6.30
2022-07-30T00:51:53.037Z,8.23
2022-07-30T00:54:21.404Z,8.37
2022-07-30T00:56:49.533Z,6.13
2022-07-30T00:59:17.664Z,5.63
2022-07-30T01:01:45.621Z,5.00
2022-07-30T01:04:13.465Z,6.53
2022-07-30T01:06:41.453Z,8.10
2022-07-30T01:09:10.701Z,5.87
2022-07-30T01:11:41.067Z,6.07
2022-07-30T01:14:10.243Z,5.77
2022-07-30T01:16:41.701Z,5.47
2022-07-30T01:19:33.505Z,5.57
2022-07-30T01:22:11.449Z,7.73
2022-07-30T01:24:44.449Z,5.23
2022-07-30T01:27:19.698Z,8.77
2022-07-30T01:29:49.170Z,6.00
2022-07-30T01:32:19.262Z,5.43
2022-07-30T01:34:48.611Z,7.67
2022-07-30T01:37:17.727Z,4.13
2022-07-30T01:39:49.755Z,6.60
2022-07-30T01:42:20.429Z,4.20
2022-07-30T01:44:50.143Z,5.63
2022-07-30T01:47:19.459Z,6.10
2022-07-30T01:49:48.358Z,5.40
2022-07-30T01:52:18.992Z,4.03
2022-07-30T01:54:49.624Z,4.93
2022-07-30T01:57:20.907Z,6.33
2022-07-30T01:59:51.950Z,4.13
2022-07-30T02:02:19.936Z,5.27
2022-07-30T02:04:47.956Z,6.23
2022-07-30T02:07:20.570Z,4.27
2022-07-30T02:09:54.748Z,6.27
2022-07-30T02:12:32.346Z,7.17
2022-07-30T02:15:15.786Z,5.43
2022-07-30T02:17:46.865Z,5.03
2022-07-30T02:20:17.432Z,4.43
2022-07-30T02:22:48.199Z,4.87
2022-07-30T02:25:22.435Z,6.13
2022-07-30T02:27:54.588Z,5.43
2022-07-30T02:30:27.932Z,7.03
2022-07-30T02:33:03.073Z,6.67
2022-07-30T02:35:32.574Z,6.53
2022-07-30T02:38:02.779Z,4.57
2022-07-30T02:40:30.898Z,4.60
2022-07-30T02:43:01.251Z,4.27
2022-07-30T02:45:31.709Z,4.70
2022-07-30T02:48:06.519Z,7.43
2022-07-30T02:50:35.224Z,7.30
2022-07-30T02:53:04.870Z,6.33
2022-07-30T02:55:35.495Z,6.57
2022-07-30T02:58:07.929Z,5.70
2022-07-30T03:00:37.026Z,7.83
2022-07-30T03:03:07.674Z,9.73
2022-07-30T03:05:35.903Z,6.00
2022-07-30T03:08:05.517Z,6.50
2022-07-30T03:10:35.159Z,7.20
2022-07-30T03:13:06.791Z,7.03
2022-07-30T03:15:39.514Z,7.10
2022-07-30T03:18:11.940Z,9.90
2022-07-30T03:20:41.130Z,8.60
2022-07-30T03:23:11.925Z,7.10
2022-07-30T03:25:41.099Z,8.30
2022-07-30T03:28:11.608Z,7.37
2022-07-30T03:30:39.730Z,6.77
2022-07-30T03:33:08.123Z,7.43
2022-07-30T03:35:37.322Z,8.53
2022-07-30T03:38:05.956Z,6.57
2022-07-30T03:40:34.737Z,8.67
2022-07-30T03:43:02.863Z,5.77
2022-07-30T03:45:32.655Z,6.90
2022-07-30T03:48:01.065Z,7.30
2022-07-30T03:50:30.990Z,7.83
2022-07-30T03:52:59.413Z,8.93
2022-07-30T03:55:27.726Z,7.70
2022-07-30T03:57:55.646Z,8.47
2022-07-30T04:00:24.173Z,8.80
2022-07-30T04:02:53.538Z,9.03
2022-07-30T04:05:22.099Z,8.30
2022-07-30T04:07:50.312Z,7.23
2022-07-30T04:10:18.644Z,7.50
2022-07-30T04:12:46.522Z,7.13
2022-07-30T04:16:05.111Z,7.27
2022-07-30T04:18:07.132Z,8.40
2022-07-30T04:20:40.867Z,7.27
2022-07-30T04:23:09.885Z,6.73
2022-07-30T04:25:38.805Z,9.07
2022-07-30T04:28:07.362Z,8.97
2022-07-30T04:30:35.399Z,11.43
2022-07-30T04:33:05.537Z,9.47
2022-07-30T04:35:51.158Z,8.37
2022-07-30T04:38:21.164Z,8.33
2022-07-30T04:40:49.734Z,10.07
2022-07-30T04:43:18.147Z,9.40
2022-07-30T04:45:46.728Z,9.87
2022-07-30T04:48:15.980Z,7.80
2022-07-30T04:50:47.925Z,7.47
2022-07-30T04:53:16.765Z,9.37
2022-07-30T04:55:47.869Z,8.67
2022-07-30T04:58:18.687Z,8.23
2022-07-30T05:00:46.797Z,7.47
2022-07-30T05:03:17.353Z,8.17
2022-07-30T05:05:46.776Z,8.23
2022-07-30T05:08:15.035Z,7.87
2022-07-30T05:10:44.679Z,6.97
2022-07-30T05:13:14.127Z,8.20
2022-07-30T05:15:44.654Z,8.60
2022-07-30T05:18:13.365Z,8.97
2022-07-30T05:20:42.608Z,8.03
2022-07-30T05:23:10.475Z,10.43
2022-07-30T05:25:38.408Z,11.10
2022-07-30T05:28:06.412Z,9.07
2022-07-30T05:30:34.319Z,7.60
2022-07-30T05:33:03.676Z,8.40
2022-07-30T05:35:38.172Z,7.90
2022-07-30T05:38:07.353Z,8.53
2022-07-30T05:40:35.287Z,11.13
2022-07-30T05:43:03.147Z,7.07
2022-07-30T05:45:31.049Z,10.57
2022-07-30T05:47:58.940Z,8.17
2022-07-30T05:50:26.869Z,8.50
2022-07-30T05:52:56.034Z,8.03
2022-07-30T05:55:25.440Z,7.43
2022-07-30T05:57:53.250Z,8.10
2022-07-30T06:00:21.146Z,7.53
2022-07-30T06:02:48.953Z,7.07
2022-07-30T06:05:16.831Z,7.87
2022-07-30T06:07:44.718Z,8.90
2022-07-30T06:10:12.777Z,9.53
2022-07-30T06:12:42.462Z,7.90
2022-07-30T06:15:11.684Z,7.57
2022-07-30T06:17:44.001Z,8.47
2022-07-30T06:20:21.344Z,8.73
2022-07-30T06:22:49.262Z,7.50
2022-07-30T06:25:18.725Z,8.10
2022-07-30T06:27:48.099Z,8.47
2022-07-30T06:30:16.014Z,7.77
2022-07-30T06:32:45.620Z,7.60
2022-07-30T06:35:16.719Z,9.20
2022-07-30T06:38:05.636Z,7.63
2022-07-30T06:40:32.489Z,10.30
2022-07-30T06:43:01.757Z,8.67
2022-07-30T06:45:29.625Z,9.63
2022-07-30T06:47:58.690Z,8.07
2022-07-30T06:50:27.159Z,8.07
2022-07-30T06:52:55.222Z,7.97
2022-07-30T06:55:23.060Z,8.27
2022-07-30T06:57:50.964Z,7.90
2022-07-30T07:00:20.707Z,8.90
2022-07-30T07:02:48.560Z,6.40
2022-07-30T07:05:16.580Z,7.47
2022-07-30T07:07:52.491Z,7.37
2022-07-30T07:10:26.519Z,6.67
2022-07-30T07:12:54.431Z,6.93
2022-07-30T07:15:36.244Z,6.50
2022-07-30T07:18:05.438Z,6.03
2022-07-30T07:20:33.614Z,5.97
2022-07-30T07:23:06.558Z,6.20
2022-07-30T07:25:37.743Z,7.27
2022-07-30T07:28:12.817Z,7.47
2022-07-30T07:30:43.374Z,5.80
2022-07-30T07:33:12.114Z,7.33
2022-07-30T07:35:49.454Z,6.03
2022-07-30T07:38:18.803Z,6.07
2022-07-30T07:40:47.393Z,7.07
2022-07-30T07:43:15.711Z,7.43
2022-07-30T07:45:45.627Z,5.03
2022-07-30T07:48:13.864Z,5.17
2022-07-30T07:50:41.903Z,6.13
2022-07-30T07:53:09.914Z,6.10
2022-07-30T07:55:37.802Z,4.80
2022-07-30T07:58:05.842Z,6.77
2022-07-30T08:00:34.124Z,10.67
2022-07-30T08:03:03.380Z,7.20
2022-07-30T08:06:00.824Z,5.57
2022-07-30T08:08:19.161Z,6.40
2022-07-30T08:10:47.547Z,5.97
2022-07-30T08:13:48.480Z,4.50
2022-07-30T08:16:03.654Z,5.53
2022-07-30T08:18:32.928Z,4.40
2022-07-30T08:21:00.793Z,4.77
2022-07-30T08:23:28.705Z,5.87
2022-07-30T08:25:58.077Z,4.60
2022-07-30T08:28:36.176Z,4.40
2022-07-30T08:31:04.795Z,4.40
2022-07-30T08:33:34.214Z,3.67
2022-07-30T08:36:02.959Z,3.80
2022-07-30T08:38:37.001Z,4.70
2022-07-30T08:41:04.834Z,4.93
2022-07-30T08:43:33.718Z,2.83
2022-07-30T08:46:03.568Z,4.20
2022-07-30T08:48:33.483Z,5.03
2022-07-30T08:51:02.142Z,4.97
2022-07-30T08:53:30.599Z,4.13
2022-07-30T08:55:58.853Z,4.38
2022-07-30T08:58:30.862Z,6.70
2022-07-30T09:00:59.182Z,3.50
2022-07-30T09:03:27.051Z,2.57
2022-07-30T09:05:56.331Z,3.22
2022-07-30T09:08:24.242Z,3.17
2022-07-30T09:10:53.240Z,3.60
2022-07-30T09:13:25.645Z,3.40
2022-07-30T09:15:53.946Z,2.78
2022-07-30T09:18:30.532Z,3.67
2022-07-30T09:21:01.645Z,3.28
2022-07-30T09:23:29.942Z,4.00
2022-07-30T09:26:00.555Z,2.70
2022-07-30T09:28:33.096Z,3.30
2022-07-30T09:31:01.723Z,3.78
2022-07-30T09:33:35.672Z,3.00
2022-07-30T09:36:09.299Z,3.63
2022-07-30T09:38:49.239Z,2.80
2022-07-30T09:41:37.711Z,2.60
2022-07-30T09:44:07.311Z,3.03
2022-07-30T09:46:47.438Z,3.42
2022-07-30T09:49:16.850Z,3.42
2022-07-30T09:51:56.006Z,3.30
2022-07-30T09:54:25.722Z,2.70
2022-07-30T09:57:26.555Z,2.47
2022-07-30T09:59:56.666Z,2.22
2022-07-30T10:02:31.911Z,4.25
2022-07-30T10:05:14.391Z,2.75
2022-07-30T10:07:52.162Z,2.53
2022-07-30T10:10:25.776Z,2.20
2022-07-30T10:12:58.150Z,2.33
2022-07-30T10:15:29.579Z,2.97
2022-07-30T10:17:57.932Z,2.97
2022-07-30T10:20:26.743Z,7.90
2022-07-30T10:22:57.149Z,4.20
2022-07-30T10:25:28.254Z,4.68
2022-07-30T10:27:57.747Z,4.68
2022-07-30T10:30:27.798Z,2.67
2022-07-30T10:32:58.228Z,3.30
2022-07-30T10:35:34.603Z,2.78
2022-07-30T10:38:13.898Z,3.45
2022-07-30T10:40:50.707Z,2.90
2022-07-30T10:43:59.619Z,2.78
2022-07-30T10:46:39.679Z,3.83
2022-07-30T10:49:18.831Z,2.60
2022-07-30T10:51:50.148Z,2.72
2022-07-30T10:54:40.209Z,2.67
2022-07-30T10:57:11.577Z,4.25
2022-07-30T11:00:15.195Z,5.55
2022-07-30T11:03:14.785Z,2.42
2022-07-30T11:05:44.999Z,2.83
2022-07-30T11:08:36.289Z,3.78
2022-07-30T11:11:19.759Z,3.22
2022-07-30T11:13:57.360Z,3.40
2022-07-30T11:16:46.081Z,5.57
2022-07-30T11:19:55.350Z,2.83
2022-07-30T11:22:27.377Z,3.90
2022-07-30T11:24:56.411Z,3.58
2022-07-30T11:27:41.478Z,2.92
2022-07-30T11:30:35.294Z,4.00
2022-07-30T11:33:32.328Z,5.15
2022-07-30T11:36:12.335Z,3.58
2022-07-30T11:39:03.350Z,4.10
2022-07-30T11:41:35.038Z,3.97
2022-07-30T11:44:32.265Z,3.25
2022-07-30T11:47:00.184Z,3.80
2022-07-30T11:49:36.306Z,5.32
2022-07-30T11:52:05.019Z,3.08
2022-07-30T11:54:33.027Z,2.80
2022-07-30T11:57:04.547Z,3.28
2022-07-30T11:59:53.448Z,5.15
2022-07-30T12:02:27.998Z,2.58
2022-07-30T12:04:55.961Z,3.10
2022-07-30T12:07:24.280Z,3.58
2022-07-30T12:09:52.248Z,2.35
2022-07-30T12:12:24.223Z,3.95
2022-07-30T12:14:53.524Z,3.25
2022-07-30T12:17:21.524Z,2.53
2022-07-30T12:19:52.331Z,3.38
2022-07-30T12:22:20.321Z,3.28
2022-07-30T12:24:48.272Z,2.85
2022-07-30T12:27:18.463Z,3.53
2022-07-30T12:29:46.378Z,2.60
2022-07-30T12:32:15.976Z,2.40
2022-07-30T12:34:55.724Z,2.58
2022-07-30T12:37:24.032Z,2.85
2022-07-30T12:40:06.688Z,2.60
2022-07-30T12:42:34.836Z,2.25
2022-07-30T12:45:02.836Z,3.13
2022-07-30T12:47:34.817Z,2.97
2022-07-30T12:50:06.287Z,2.58
2022-07-30T12:52:35.518Z,2.45
2022-07-30T12:55:07.311Z,2.88
2022-07-30T12:57:55.241Z,2.67
2022-07-30T13:00:24.274Z,2.40
2022-07-30T13:02:53.810Z,2.75
2022-07-30T13:05:26.247Z,2.63
2022-07-30T13:07:56.263Z,3.72
2022-07-30T13:10:27.304Z,2.97
2022-07-30T13:12:58.234Z,3.75
2022-07-30T13:15:26.372Z,5.05
2022-07-30T13:17:55.707Z,4.40
2022-07-30T13:20:23.602Z,4.30
2022-07-30T13:22:51.406Z,3.92
2022-07-30T13:25:19.338Z,3.17
2022-07-30T13:27:47.156Z,2.65
2022-07-30T13:30:15.624Z,2.50
2022-07-30T13:32:43.526Z,2.60
2022-07-30T13:35:12.769Z,2.83
2022-07-30T13:37:40.611Z,2.40
2022-07-30T13:40:09.922Z,4.10
2022-07-30T13:42:37.778Z,4.60
2022-07-30T13:45:06.454Z,3.78
2022-07-30T13:47:34.339Z,5.30
2022-07-30T13:50:02.239Z,3.55
2022-07-30T13:52:31.513Z,4.18
2022-07-30T13:54:59.414Z,3.50
2022-07-30T13:57:27.483Z,3.72
2022-07-30T13:59:55.388Z,3.58
2022-07-30T14:02:23.229Z,5.03
2022-07-30T14:04:51.242Z,3.28
2022-07-30T14:07:19.138Z,3.05
2022-07-30T14:09:52.684Z,3.95
2022-07-30T14:12:22.190Z,3.20
2022-07-30T14:14:50.286Z,3.42
2022-07-30T14:17:18.163Z,3.25
2022-07-30T14:19:46.032Z,3.40
2022-07-30T14:22:13.882Z,3.35
2022-07-30T14:24:41.856Z,3.80
2022-07-30T14:27:11.643Z,5.35
2022-07-30T14:29:39.955Z,3.65
2022-07-30T14:32:08.059Z,2.67
2022-07-30T14:34:35.925Z,4.47
2022-07-30T14:37:04.188Z,3.20
2022-07-30T14:39:32.359Z,5.45
2022-07-30T14:42:00.226Z,2.90
2022-07-30T14:44:29.688Z,3.75
2022-07-30T14:46:57.726Z,3.15
2022-07-30T14:49:25.675Z,4.60
2022-07-30T14:52:00.807Z,2.90
2022-07-30T14:54:28.916Z,4.45
2022-07-30T14:56:58.793Z,4.20
2022-07-30T14:59:27.864Z,3.08
2022-07-30T15:01:57.511Z,3.90
2022-07-30T15:04:25.704Z,7.43
2022-07-30T15:06:53.623Z,4.38
2022-07-30T15:09:21.517Z,3.08
2022-07-30T15:12:09.193Z,2.80
2022-07-30T15:14:37.969Z,3.40
2022-07-30T15:17:07.754Z,3.40
2022-07-30T15:19:35.741Z,3.22
2022-07-30T15:22:04.075Z,4.13
2022-07-30T15:24:32.696Z,4.32
2022-07-30T15:27:05.727Z,3.10
2022-07-30T15:29:33.599Z,5.15
2022-07-30T15:32:01.845Z,3.97
2022-07-30T15:34:34.588Z,3.22
2022-07-30T15:37:03.003Z,5.82
2022-07-30T15:39:35.272Z,3.75
2022-07-30T15:42:05.997Z,4.88
2022-07-30T15:44:34.519Z,4.43
2022-07-30T15:47:02.606Z,4.43
2022-07-30T15:49:32.240Z,5.03
2022-07-30T15:52:01.141Z,6.32
2022-07-30T15:54:29.470Z,6.18
2022-07-30T15:57:00.970Z,6.72
2022-07-30T15:59:29.967Z,4.78
2022-07-30T16:01:57.958Z,6.60
2022-07-30T16:04:31.508Z,4.93
2022-07-30T16:07:01.205Z,4.40
2022-07-30T16:09:30.915Z,5.22
2022-07-30T16:11:59.777Z,7.05
2022-07-30T16:14:27.810Z,4.80
2022-07-30T16:16:59.464Z,5.05
2022-07-30T16:19:28.406Z,4.40
2022-07-30T16:21:58.003Z,5.25
2022-07-30T16:24:27.291Z,4.32
2022-07-30T16:26:55.317Z,3.47
2022-07-30T16:29:24.830Z,5.63
2022-07-30T16:31:52.940Z,7.93
2022-07-30T16:34:23.093Z,5.55
2022-07-30T16:36:54.638Z,4.18
2022-07-30T16:39:22.435Z,6.03
2022-07-30T16:41:51.794Z,4.90
2022-07-30T16:44:19.798Z,3.88
2022-07-30T16:46:48.441Z,4.20
2022-07-30T16:49:16.361Z,5.45
2022-07-30T16:51:44.299Z,4.15
2022-07-30T16:54:13.187Z,4.43
2022-07-30T16:56:41.534Z,4.35
2022-07-30T16:59:13.778Z,4.25
2022-07-30T17:01:41.954Z,4.13
2022-07-30T17:04:10.030Z,4.18
2022-07-30T17:06:39.460Z,6.15
2022-07-30T17:09:07.758Z,4.32
2022-07-30T17:11:46.708Z,4.43
2022-07-30T17:14:17.404Z,4.78
2022-07-30T17:16:45.434Z,4.63
2022-07-30T17:19:14.480Z,3.70
2022-07-30T17:21:42.297Z,4.28
2022-07-30T17:24:13.550Z,5.28
2022-07-30T17:26:43.343Z,3.58
2022-07-30T17:29:14.387Z,3.60
2022-07-30T17:31:45.104Z,5.50
2022-07-30T17:34:14.631Z,3.97
2022-07-30T17:36:51.386Z,5.60
2022-07-30T17:40:06.051Z,7.57
2022-07-30T17:42:11.464Z,5.72
2022-07-30T17:44:40.263Z,4.05
2022-07-30T17:47:14.534Z,4.18
2022-07-30T17:49:43.113Z,5.28
2022-07-30T17:52:11.026Z,3.78
2022-07-30T17:54:39.106Z,7.90
2022-07-30T17:57:07.171Z,6.15
2022-07-30T17:59:35.229Z,4.63
2022-07-30T18:02:04.698Z,4.43
2022-07-30T18:04:34.997Z,8.38
2022-07-30T18:07:03.042Z,4.65
2022-07-30T18:09:39.116Z,4.55
2022-07-30T18:12:08.754Z,3.72
2022-07-30T18:14:37.324Z,5.97
2022-07-30T18:17:05.722Z,6.38
2022-07-30T18:19:35.325Z,4.28
2022-07-30T18:22:05.254Z,6.35
2022-07-30T18:24:34.726Z,6.63
2022-07-30T18:27:08.650Z,4.95
2022-07-30T18:29:36.593Z,4.38
2022-07-30T18:32:05.642Z,7.07
2022-07-30T18:34:35.402Z,5.20
2022-07-30T18:37:03.241Z,4.55
2022-07-30T18:39:31.125Z,6.80
2022-07-30T18:41:59.364Z,5.07
2022-07-30T18:44:27.554Z,6.97
2022-07-30T18:46:55.644Z,5.18
2022-07-30T18:49:39.057Z,5.72
2022-07-30T18:52:08.770Z,5.97
2022-07-30T18:54:37.313Z,7.78
2022-07-30T18:57:05.661Z,8.40
2022-07-30T18:59:33.548Z,8.48
2022-07-30T19:02:01.983Z,6.85
2022-07-30T19:04:31.547Z,6.00
2022-07-30T19:06:59.780Z,5.47
2022-07-30T19:09:29.166Z,7.32
2022-07-30T19:11:57.525Z,5.63
2022-07-30T19:14:25.429Z,5.30
2022-07-30T19:16:54.101Z,6.97
2022-07-30T19:19:27.960Z,4.85
2022-07-30T19:21:56.525Z,4.78
2022-07-30T19:24:27.075Z,5.78
2022-07-30T19:26:57.484Z,9.30
2022-07-30T19:29:25.492Z,5.78
2022-07-30T19:31:53.435Z,6.23
2022-07-30T19:34:21.446Z,5.07
2022-07-30T19:36:49.541Z,4.45
2022-07-30T19:39:21.350Z,7.70
2022-07-30T19:41:51.055Z,5.93
2022-07-30T19:44:20.553Z,5.50
2022-07-30T19:46:51.533Z,6.53
2022-07-30T19:49:19.942Z,6.22
2022-07-30T19:52:10.477Z,7.23
2022-07-30T19:54:37.767Z,5.57
2022-07-30T19:57:05.993Z,5.13
2022-07-30T19:59:45.587Z,5.70
2022-07-30T20:02:23.529Z,6.47
2022-07-30T20:04:52.817Z,6.50
2022-07-30T20:07:22.652Z,6.97
2022-07-30T20:09:55.531Z,6.37
2022-07-30T20:12:24.397Z,6.03
2022-07-30T20:14:53.763Z,5.77
2022-07-30T20:17:24.001Z,5.33
2022-07-30T20:19:59.392Z,5.27
2022-07-30T20:22:28.924Z,5.80
2022-07-30T20:24:57.227Z,5.33
2022-07-30T20:27:38.293Z,5.27
2022-07-30T20:30:09.898Z,5.43
2022-07-30T20:32:43.504Z,5.50
2022-07-30T20:35:14.771Z,6.00
2022-07-30T20:37:55.279Z,5.23
2022-07-30T20:40:26.800Z,4.80
2022-07-30T20:42:55.132Z,5.73
2022-07-30T20:45:25.335Z,5.20
2022-07-30T20:48:08.401Z,4.60
2022-07-30T20:50:46.066Z,5.07
2022-07-30T20:53:17.228Z,4.40
2022-07-30T20:55:45.097Z,4.00
2022-07-30T20:58:16.490Z,4.27
2022-07-30T21:00:49.791Z,4.20
2022-07-30T21:03:21.394Z,4.50
2022-07-30T21:05:52.556Z,6.67
2022-07-30T21:08:25.083Z,6.67
2022-07-30T21:10:55.177Z,7.77
2022-07-30T21:13:24.855Z,9.13
2022-07-30T21:16:15.893Z,12.47
2022-07-30T21:18:50.192Z,12.70
2022-07-30T21:21:30.411Z,10.10
2022-07-30T21:24:11.791Z,7.87
2022-07-30T21:26:41.413Z,9.17
2022-07-30T21:29:09.763Z,6.33
2022-07-30T21:32:01.620Z,6.20
2022-07-30T21:34:30.878Z,6.00
2022-07-30T21:37:03.284Z,7.03
2022-07-30T21:39:31.147Z,7.50
2022-07-30T21:41:59.104Z,8.27
2022-07-30T21:44:27.042Z,7.30
2022-07-30T21:46:56.956Z,8.43
2022-07-30T21:49:24.890Z,7.70
2022-07-30T21:51:52.907Z,8.17
2022-07-30T21:54:29.094Z,7.67
2022-07-30T21:56:58.136Z,9.67
2022-07-30T21:59:27.633Z,6.63
2022-07-30T22:01:57.436Z,9.43
2022-07-30T22:04:25.981Z,7.80
2022-07-30T22:06:55.359Z,7.57
2022-07-30T22:12:18.128Z,7.00
2022-07-30T22:14:49.327Z,6.87
2022-07-30T22:17:23.833Z,6.73
2022-07-30T22:20:08.525Z,6.43
2022-07-30T22:22:39.648Z,7.10
2022-07-30T22:25:09.836Z,6.53
2022-07-30T22:27:40.146Z,7.33
2022-07-30T22:30:26.578Z,6.23
2022-07-30T22:32:56.516Z,7.00
2022-07-30T22:35:33.587Z,9.93
2022-07-30T22:38:02.854Z,6.30
2022-07-30T22:40:30.975Z,7.13
2022-07-30T22:42:59.298Z,6.73
2022-07-30T22:45:46.902Z,7.33
2022-07-30T22:48:19.289Z,6.97
2022-07-30T22:50:53.327Z,6.07
2022-07-30T22:54:11.015Z,7.83
2022-07-30T22:56:14.024Z,6.03
2022-07-30T22:58:43.779Z,6.47
2022-07-30T23:01:11.699Z,6.47
2022-07-30T23:03:41.430Z,8.70
2022-07-30T23:06:14.388Z,6.83
2022-07-30T23:08:43.150Z,7.13
2022-07-30T23:11:11.898Z,9.03
2022-07-30T23:12:28.378Z,7.77
2022-07-30T23:13:40.920Z,8.80
2022-07-30T23:16:08.980Z,9.93
2022-07-30T23:18:36.932Z,8.70
2022-07-30T23:21:07.125Z,7.33
2022-07-30T23:23:36.370Z,7.17
2022-07-30T23:26:05.863Z,7.47
2022-07-30T23:28:33.793Z,6.73
2022-07-30T23:31:02.678Z,7.30
2022-07-30T23:33:30.599Z,9.17
2022-07-30T23:36:00.198Z,7.20
2022-07-30T23:38:29.904Z,7.03
2022-07-30T23:41:01.495Z,7.63
2022-07-30T23:43:30.140Z,8.23
2022-07-30T23:45:58.189Z,8.07
2022-07-30T23:48:26.264Z,7.93
2022-07-30T23:50:54.102Z,7.97
2022-07-30T23:53:22.289Z,7.83
2022-07-30T23:55:52.083Z,8.83
2022-07-30T23:58:20.322Z,7.33
